Weather at Flúðir Airport

Public forecast

Using degrees Celsius for public forecast. Weather courtesy of forecast.io.

Closest aviation weather report (METAR) to Flúðir Airport

Closest report is Reykjavik Airport, 42.3 nm (78.3 km) W. Retrieved 2021/06/19 20:00 UTC (51 minutes ago):

BIRK 192000Z 31015KT 9999 SCT029 08/02 Q1014

Closest aviation forecast (TAF) to Flúðir Airport

Closest forecast is Reykjavik Airport, 42.3 nm (78.3 km) W. Retrieved 2021/06/19 21:48 UTC (0 seconds ago):

TAF BIRK 191943Z 1921/2021 33016KT 9999 SCT035 BKN050 TX10/2015Z TN04/2001Z BECMG 2016/2018 27012KT